Time;durP1;ratioP1;P1;durP2;ratioP2;P2;SDS_P1;SDS_P2;PMS_P1;PMS_P2;Temp;Humidity;BMP_temperature;BMP_pressure;BME280_temperature;BME280_humidity;BME280_pressure;Samples;Min_cycle;Max_cycle;Signal;HPM_P1;HPM_P2
2023/10/13 00:01:48;;;;;;;40.92;26.63;;;16.40;91.50;;;;;;6250280;22;20014;-92
2023/10/13 00:04:14;;;;;;;46.78;27.88;;;16.40;91.50;;;;;;6250929;22;20028;-90
2023/10/13 00:06:39;;;;;;;40.95;25.65;;;16.50;91.50;;;;;;6225846;22;20037;-91
2023/10/13 00:09:05;;;;;;;46.78;26.52;;;16.50;91.50;;;;;;6224378;22;20008;-91
2023/10/13 00:11:30;;;;;;;45.03;25.90;;;16.50;91.50;;;;;;6250243;22;20057;-90
2023/10/13 00:13:56;;;;;;;38.50;24.33;;;16.60;91.70;;;;;;6226455;22;20022;-90
2023/10/13 00:16:27;;;;;;;39.35;24.65;;;16.60;91.60;;;;;;6229799;22;20039;-91
2023/10/13 00:18:57;;;;;;;38.17;23.90;;;16.90;91.70;;;;;;6255296;22;20051;-91
2023/10/13 00:21:33;;;;;;;35.90;22.92;;;16.60;91.60;;;;;;6225011;22;20008;-91
2023/10/13 00:24:06;;;;;;;38.83;23.20;;;16.70;91.60;;;;;;6224600;22;20016;-90
2023/10/13 00:26:35;;;;;;;40.65;22.63;;;16.70;91.60;;;;;;6249553;22;20090;-90
2023/10/13 00:29:37;;;;;;;35.22;23.13;;;16.70;91.60;;;;;;6250121;22;20054;-91
2023/10/13 00:31:48;;;;;;;40.05;22.75;;;16.70;91.60;;;;;;6248622;22;20020;-92
2023/10/13 00:36:48;;;;;;;33.85;21.92;;;16.70;91.50;;;;;;6249003;22;20349;-91
2023/10/13 00:39:18;;;;;;;31.15;21.02;;;16.80;91.60;;;;;;6250199;22;20413;-91
2023/10/13 00:41:57;;;;;;;33.53;20.05;;;17.10;91.70;;;;;;6250196;22;20008;-93
2023/10/13 00:44:37;;;;;;;30.80;19.75;;;16.80;91.50;;;;;;6224399;22;20012;-91
2023/10/13 00:47:07;;;;;;;31.20;19.05;;;16.80;91.50;;;;;;6224318;22;20012;-91
2023/10/13 00:49:39;;;;;;;32.55;19.20;;;16.80;91.50;;;;;;6249319;22;20417;-89
2023/10/13 00:52:06;;;;;;;31.65;18.45;;;16.80;91.50;;;;;;6248351;22;20022;-89
2023/10/13 00:54:35;;;;;;;30.42;18.52;;;16.80;91.50;;;;;;6223369;22;20023;-90
2023/10/13 00:57:26;;;;;;;28.42;18.88;;;16.80;91.50;;;;;;6248687;22;20019;-90
2023/10/13 00:59:57;;;;;;;27.95;17.65;;;16.90;91.50;;;;;;6248859;22;20008;-91
2023/10/13 01:05:02;;;;;;;30.73;19.20;;;16.90;91.50;;;;;;6248085;22;20023;-90
2023/10/13 01:07:28;;;;;;;27.95;17.38;;;16.90;91.50;;;;;;6249400;22;20018;-90
2023/10/13 01:09:55;;;;;;;31.88;18.73;;;16.80;91.50;;;;;;6223974;22;20011;-90
2023/10/13 01:12:23;;;;;;;28.60;17.60;;;16.90;91.50;;;;;;6249079;22;20011;-91
2023/10/13 01:14:49;;;;;;;32.53;19.13;;;16.90;91.50;;;;;;6248876;22;20019;-90
2023/10/13 01:17:15;;;;;;;27.77;19.00;;;17.50;91.60;;;;;;6248965;22;20004;-91
2023/10/13 01:19:45;;;;;;;29.00;19.02;;;17.00;91.50;;;;;;6248309;22;20387;-91
2023/10/13 01:22:13;;;;;;;34.22;20.02;;;17.00;91.50;;;;;;6248802;22;20011;-91
2023/10/13 01:24:39;;;;;;;28.75;18.92;;;16.90;91.40;;;;;;6248424;22;20015;-90
2023/10/13 01:27:19;;;;;;;33.38;20.88;;;17.00;91.40;;;;;;6249043;22;20008;-89
2023/10/13 01:29:52;;;;;;;32.63;21.17;;;16.90;91.40;;;;;;6248131;22;20011;-90
2023/10/13 01:32:22;;;;;;;30.27;20.27;;;16.90;91.40;;;;;;6223094;22;20039;-91
2023/10/13 01:34:49;;;;;;;34.28;20.60;;;17.00;91.40;;;;;;6249014;22;20116;-90
2023/10/13 01:37:19;;;;;;;28.15;20.75;;;17.00;91.40;;;;;;6248254;22;20008;-90
2023/10/13 01:39:49;;;;;;;34.63;20.70;;;17.00;91.40;;;;;;6223211;22;20047;-90
2023/10/13 01:42:21;;;;;;;31.60;20.23;;;17.00;91.40;;;;;;6249298;22;20012;-91
2023/10/13 01:44:47;;;;;;;30.20;20.38;;;17.00;91.40;;;;;;6248294;22;20015;-90
2023/10/13 01:47:13;;;;;;;27.63;21.48;;;17.00;91.40;;;;;;6248869;22;20027;-91
2023/10/13 01:49:42;;;;;;;30.45;21.67;;;16.90;91.40;;;;;;6225149;22;20034;-91
2023/10/13 01:52:11;;;;;;;31.73;21.85;;;17.00;91.40;;;;;;6224528;22;20007;-90
2023/10/13 01:54:40;;;;;;;27.35;20.58;;;17.30;91.50;;;;;;6223148;22;20073;-90
2023/10/13 01:57:14;;;;;;;30.08;21.52;;;17.00;91.40;;;;;;6249620;22;20039;-91
2023/10/13 01:59:44;;;;;;;29.17;21.87;;;17.10;91.40;;;;;;6249488;22;20332;-89
2023/10/13 02:02:12;;;;;;;28.35;20.50;;;17.10;91.40;;;;;;6251758;22;20622;-89
2023/10/13 02:04:56;;;;;;;29.98;21.02;;;17.00;91.50;;;;;;6249239;22;20051;-91
2023/10/13 02:07:26;;;;;;;32.13;20.55;;;17.00;91.40;;;;;;6249369;22;20011;-90
2023/10/13 02:09:54;;;;;;;33.17;21.80;;;17.10;91.30;;;;;;6250579;22;20042;-90
2023/10/13 02:12:26;;;;;;;31.23;21.00;;;17.00;91.30;;;;;;6251130;22;20020;-90
2023/10/13 02:14:51;;;;;;;28.60;20.98;;;17.00;91.30;;;;;;6252143;22;20054;-91
2023/10/13 02:17:21;;;;;;;27.83;21.50;;;17.00;91.30;;;;;;6251095;22;20011;-90
2023/10/13 02:19:47;;;;;;;27.13;20.38;;;17.00;91.30;;;;;;6253170;22;20352;-90
2023/10/13 02:22:26;;;;;;;31.88;21.85;;;17.00;91.30;;;;;;6255114;22;20099;-89
2023/10/13 02:24:52;;;;;;;24.60;19.45;;;17.10;91.30;;;;;;6257570;22;20306;-90
2023/10/13 02:27:22;;;;;;;26.88;20.60;;;17.10;91.30;;;;;;6265070;22;20332;-90
2023/10/13 02:29:49;;;;;;;26.92;20.42;;;17.10;91.30;;;;;;6267144;22;20019;-89
2023/10/13 02:32:21;;;;;;;25.10;20.00;;;17.10;91.30;;;;;;6257627;22;20004;-91
2023/10/13 02:34:47;;;;;;;30.42;22.35;;;17.10;91.20;;;;;;6229080;22;20021;-89
2023/10/13 02:37:13;;;;;;;26.13;19.75;;;17.00;91.20;;;;;;6250782;22;20039;-90
2023/10/13 02:39:42;;;;;;;25.23;18.80;;;17.10;91.20;;;;;;6223642;22;20035;-90
2023/10/13 02:42:16;;;;;;;24.48;18.30;;;17.10;91.20;;;;;;6248542;22;20015;-91
2023/10/13 02:44:45;;;;;;;26.80;20.30;;;17.10;91.20;;;;;;6248210;22;20016;-91
2023/10/13 02:47:14;;;;;;;28.13;20.92;;;17.10;91.20;;;;;;6247487;22;20015;-92
2023/10/13 02:49:43;;;;;;;27.60;19.67;;;17.10;91.20;;;;;;6248529;22;20019;-92
2023/10/13 02:52:09;;;;;;;28.77;21.13;;;17.10;91.20;;;;;;6248374;22;20012;-90
2023/10/13 02:54:50;;;;;;;25.95;19.40;;;17.10;91.20;;;;;;6247920;22;20012;-92
2023/10/13 02:57:19;;;;;;;27.50;19.70;;;17.20;91.20;;;;;;6222954;22;20011;-92
2023/10/13 02:59:50;;;;;;;31.08;19.77;;;17.10;91.20;;;;;;6222770;22;20019;-93
2023/10/13 03:02:25;;;;;;;30.27;19.60;;;17.00;91.10;;;;;;6222962;22;20421;-93
2023/10/13 03:04:59;;;;;;;30.08;20.90;;;17.00;91.10;;;;;;6223293;22;20012;-93
2023/10/13 03:07:28;;;;;;;28.52;18.80;;;17.10;91.20;;;;;;6222975;22;20198;-92
2023/10/13 03:09:57;;;;;;;29.58;19.38;;;17.10;91.20;;;;;;6247921;22;20124;-91
2023/10/13 03:12:33;;;;;;;23.17;17.92;;;17.10;91.20;;;;;;6247609;22;20012;-92
2023/10/13 03:15:17;;;;;;;26.33;17.88;;;17.60;91.30;;;;;;6222325;22;20008;-92
2023/10/13 03:17:43;;;;;;;21.85;16.08;;;17.10;91.20;;;;;;6222790;22;20429;-92
2023/10/13 03:20:24;;;;;;;23.58;16.35;;;17.00;91.10;;;;;;6248079;22;20085;-92
2023/10/13 03:22:52;;;;;;;22.15;15.80;;;17.10;91.20;;;;;;6248134;22;20069;-94
2023/10/13 03:25:29;;;;;;;22.25;15.70;;;17.10;91.20;;;;;;6222814;22;20471;-91
2023/10/13 03:30:35;;;;;;;22.20;15.68;;;17.10;91.20;;;;;;6247514;22;20462;-89
2023/10/13 03:33:06;;;;;;;22.90;16.60;;;17.30;91.20;;;;;;6222659;22;20023;-91
2023/10/13 03:35:43;;;;;;;26.25;17.95;;;17.10;91.20;;;;;;6222643;22;20012;-90
2023/10/13 03:38:19;;;;;;;26.98;19.15;;;17.10;91.10;;;;;;6224033;22;20008;-91
2023/10/13 03:40:49;;;;;;;23.70;17.20;;;17.10;91.20;;;;;;6224153;22;20008;-89
2023/10/13 03:43:21;;;;;;;26.20;18.02;;;17.10;91.20;;;;;;6223902;22;20022;-90
2023/10/13 03:45:52;;;;;;;26.33;17.23;;;17.10;91.20;;;;;;6222516;22;20095;-91
2023/10/13 03:51:03;;;;;;;24.93;18.50;;;17.10;91.20;;;;;;6248002;22;20015;-92
2023/10/13 03:53:33;;;;;;;26.13;19.20;;;17.10;91.30;;;;;;6223176;22;20012;-91
2023/10/13 03:56:08;;;;;;;26.20;18.65;;;17.00;91.10;;;;;;6248286;22;20376;-89
2023/10/13 03:58:39;;;;;;;23.90;18.17;;;17.10;91.10;;;;;;6227331;22;20008;-90
2023/10/13 04:01:09;;;;;;;25.13;18.63;;;17.10;91.20;;;;;;6250800;22;20004;-95
2023/10/13 04:03:36;;;;;;;24.17;17.92;;;17.00;91.10;;;;;;6249501;22;20065;-93
2023/10/13 04:06:15;;;;;;;24.48;18.67;;;17.10;91.10;;;;;;6225674;22;20004;-90
2023/10/13 04:09:37;;;;;;;25.42;18.85;;;17.10;91.10;;;;;;6253902;22;20019;-93
2023/10/13 04:11:52;;;;;;;23.98;18.00;;;17.10;91.10;;;;;;6249504;22;20012;-92
2023/10/13 04:14:55;;;;;;;24.58;18.52;;;17.10;91.10;;;;;;6249960;22;20015;-91
2023/10/13 04:17:14;;;;;;;24.48;17.98;;;17.00;91.10;;;;;;6249355;22;20012;-91
2023/10/13 04:20:12;;;;;;;24.02;18.52;;;17.00;91.10;;;;;;6224454;22;20529;-91
2023/10/13 04:25:35;;;;;;;25.70;18.33;;;17.00;91.10;;;;;;6249379;22;20064;-92
2023/10/13 04:36:21;;;;;;;26.00;17.08;;;17.10;91.20;;;;;;6250198;22;20425;-91
2023/10/13 04:41:36;;;;;;;23.75;17.48;;;17.10;91.10;;;;;;6259015;22;20012;-90
2023/10/13 04:44:23;;;;;;;25.65;17.58;;;17.00;91.20;;;;;;6226946;22;20103;-89
2023/10/13 06:30:00;;;;;;;;;;;16.80;91.20;;;;;;6160277;23;20383;-92
2023/10/13 06:32:27;;;;;;;6.28;4.72;;;16.80;91.20;;;;;;6161910;23;19916;-92
2023/10/13 06:34:57;;;;;;;6.05;4.72;;;16.80;91.30;;;;;;6158801;23;20050;-91
2023/10/13 06:39:56;;;;;;;7.57;4.70;;;16.80;91.30;;;;;;6248482;22;20016;-93
2023/10/13 06:42:34;;;;;;;6.82;4.60;;;17.00;91.40;;;;;;6223242;22;20440;-91
2023/10/13 06:45:03;;;;;;;5.57;4.45;;;16.90;91.40;;;;;;6222747;22;20016;-92
2023/10/13 06:47:29;;;;;;;6.55;4.43;;;16.90;91.40;;;;;;6248650;22;20012;-92
2023/10/13 06:49:56;;;;;;;8.90;4.68;;;17.00;91.40;;;;;;6226490;22;20014;-92
2023/10/13 06:52:22;;;;;;;6.68;3.92;;;16.90;91.30;;;;;;6253065;22;20015;-91
2023/10/13 06:54:55;;;;;;;7.45;4.03;;;17.20;91.40;;;;;;6224919;22;20012;-93
2023/10/13 06:57:21;;;;;;;7.13;4.30;;;17.00;91.40;;;;;;6223016;22;20104;-92
2023/10/13 06:59:47;;;;;;;7.57;4.63;;;17.30;91.40;;;;;;6248216;22;20016;-91
2023/10/13 07:02:21;;;;;;;7.95;4.68;;;17.30;91.40;;;;;;6222695;22;20015;-93
2023/10/13 07:05:11;;;;;;;8.23;4.10;;;17.00;91.30;;;;;;6222949;22;20015;-92
2023/10/13 07:07:38;;;;;;;7.13;4.45;;;17.00;91.30;;;;;;6222872;22;20090;-92
2023/10/13 07:10:08;;;;;;;13.07;4.55;;;17.00;91.20;;;;;;6222097;22;20066;-92
2023/10/13 07:12:34;;;;;;;10.27;4.25;;;17.00;91.20;;;;;;6222816;22;20016;-92
2023/10/13 07:15:10;;;;;;;11.73;4.53;;;17.40;91.30;;;;;;6223603;22;20107;-93
2023/10/13 07:17:39;;;;;;;10.77;4.97;;;17.10;91.20;;;;;;6222618;22;20012;-93
2023/10/13 07:20:15;;;;;;;11.18;5.40;;;17.40;91.20;;;;;;6248324;22;20030;-92
2023/10/13 07:25:32;;;;;;;13.05;4.72;;;17.00;91.10;;;;;;6248143;22;20456;-93
2023/10/13 07:28:01;;;;;;;10.40;4.82;;;17.00;91.10;;;;;;6248148;22;20018;-94
2023/10/13 07:30:27;;;;;;;12.43;5.85;;;17.10;91.10;;;;;;6223146;22;20033;-93
2023/10/13 07:32:54;;;;;;;8.20;4.80;;;17.40;91.20;;;;;;6247853;22;20468;-93
2023/10/13 07:35:24;;;;;;;8.93;4.90;;;17.10;91.10;;;;;;6222970;22;20016;-93
2023/10/13 07:37:53;;;;;;;13.43;4.95;;;17.30;91.10;;;;;;6249890;22;20004;-94
2023/10/13 07:41:07;;;;;;;12.65;5.47;;;17.10;91.10;;;;;;6224493;22;20055;-93
2023/10/13 07:43:09;;;;;;;12.50;5.50;;;17.20;91.10;;;;;;6237658;22;20034;-93
2023/10/13 07:45:40;;;;;;;10.32;5.00;;;17.10;91.00;;;;;;6226321;22;20011;-94
2023/10/13 07:48:12;;;;;;;12.88;4.95;;;17.30;91.10;;;;;;6229581;22;20106;-96
2023/10/13 07:50:39;;;;;;;13.88;6.10;;;17.10;91.00;;;;;;6226340;22;20012;-93
2023/10/13 07:53:12;;;;;;;14.90;5.03;;;17.10;91.00;;;;;;6254138;22;20015;-93
2023/10/13 07:55:40;;;;;;;17.92;7.72;;;17.10;91.00;;;;;;6229834;22;20059;-94
2023/10/13 07:58:07;;;;;;;12.43;6.00;;;17.20;91.10;;;;;;6227186;22;20423;-93
2023/10/13 08:03:32;;;;;;;12.40;6.03;;;17.60;91.20;;;;;;6260275;22;20089;-93
2023/10/13 08:06:19;;;;;;;12.73;6.35;;;17.10;91.10;;;;;;6269439;22;20063;-95
2023/10/13 08:08:55;;;;;;;14.88;6.45;;;17.20;91.10;;;;;;6274510;22;20011;-95
2023/10/13 08:13:54;;;;;;;12.10;6.90;;;17.20;91.10;;;;;;6267252;22;20020;-93
2023/10/13 08:16:45;;;;;;;12.63;5.90;;;17.20;91.10;;;;;;6225404;22;20015;-94
2023/10/13 08:19:15;;;;;;;13.55;6.72;;;17.30;91.20;;;;;;6250816;22;20452;-95
2023/10/13 08:21:49;;;;;;;13.73;6.57;;;17.30;91.10;;;;;;6251380;22;20004;-94
2023/10/13 08:24:16;;;;;;;14.07;6.55;;;17.20;91.10;;;;;;6224452;22;20039;-94
2023/10/13 08:26:57;;;;;;;15.70;6.80;;;17.30;91.10;;;;;;6224960;22;20011;-93
2023/10/13 08:32:14;;;;;;;13.65;6.45;;;17.50;91.20;;;;;;6251683;22;20071;-94
2023/10/13 08:48:08;;;;;;;17.48;8.43;;;17.40;91.20;;;;;;6251555;22;20019;-94
2023/10/13 08:50:47;;;;;;;13.13;7.85;;;17.40;91.20;;;;;;6224777;22;20098;-93
2023/10/13 08:56:14;;;;;;;12.98;8.23;;;17.50;91.30;;;;;;6249795;22;20081;-94
2023/10/13 09:06:42;;;;;;;12.98;7.35;;;17.60;91.50;;;;;;6253488;22;20321;-92
2023/10/13 09:09:08;;;;;;;14.52;7.60;;;17.70;91.50;;;;;;6225509;22;20007;-95
2023/10/13 09:11:48;;;;;;;11.80;7.57;;;17.70;91.50;;;;;;6250221;22;20094;-94
2023/10/13 09:14:33;;;;;;;11.32;7.30;;;17.70;91.50;;;;;;6252497;22;20078;-92
2023/10/13 09:17:08;;;;;;;;;;;17.80;91.50;;;;;;6225967;22;20022;-95
2023/10/13 09:19:46;;;;;;;19.42;7.68;;;17.80;91.40;;;;;;6249334;22;19911;-92
2023/10/13 09:22:26;;;;;;;13.20;7.57;;;18.10;91.60;;;;;;6248899;22;20421;-93
2023/10/13 09:24:53;;;;;;;14.25;7.05;;;17.90;91.60;;;;;;6223225;22;20012;-90
2023/10/13 09:27:19;;;;;;;18.27;7.18;;;18.00;91.50;;;;;;6224055;22;20023;-93
2023/10/13 09:29:55;;;;;;;13.60;6.25;;;17.90;91.50;;;;;;6223529;22;20004;-92
2023/10/13 09:32:21;;;;;;;12.88;6.75;;;18.20;91.50;;;;;;6248876;22;20007;-93
2023/10/13 09:34:48;;;;;;;10.38;6.05;;;18.00;91.40;;;;;;6249614;22;20151;-93
2023/10/13 09:37:20;;;;;;;12.60;7.45;;;18.10;91.30;;;;;;6223512;22;20091;-92
2023/10/13 09:39:48;;;;;;;13.75;6.30;;;18.10;91.30;;;;;;6248742;22;20007;-95
2023/10/13 09:42:16;;;;;;;14.20;6.82;;;18.20;91.20;;;;;;6223864;22;20046;-92
2023/10/13 09:44:49;;;;;;;14.88;6.03;;;18.20;91.10;;;;;;6250343;22;20008;-93
2023/10/13 09:47:23;;;;;;;14.18;5.95;;;18.20;91.00;;;;;;6229255;22;20018;-93
2023/10/13 09:49:57;;;;;;;16.70;6.30;;;18.30;90.90;;;;;;6236432;22;20023;-95
2023/10/13 09:52:27;;;;;;;14.52;6.05;;;18.30;90.80;;;;;;6224204;22;20027;-92
2023/10/13 09:55:18;;;;;;;16.67;6.47;;;18.30;90.80;;;;;;6249241;22;20043;-93
2023/10/13 09:57:48;;;;;;;13.73;6.32;;;18.40;90.70;;;;;;6256688;22;20012;-93
2023/10/13 10:00:46;;;;;;;14.95;5.78;;;18.50;90.60;;;;;;6227153;22;20018;-95
2023/10/13 10:03:30;;;;;;;15.68;6.05;;;18.50;90.60;;;;;;6247855;22;20020;-91
2023/10/13 10:06:03;;;;;;;16.00;6.63;;;18.50;90.50;;;;;;6246694;22;20018;-93
2023/10/13 10:08:34;;;;;;;9.35;6.18;;;18.50;90.40;;;;;;6247260;22;20026;-95
2023/10/13 10:11:28;;;;;;;10.50;5.55;;;18.60;90.40;;;;;;6221101;22;20027;-93
2023/10/13 10:14:17;;;;;;;11.93;5.88;;;18.60;90.30;;;;;;6247132;22;20016;-94
2023/10/13 10:16:46;;;;;;;17.38;6.15;;;18.70;90.20;;;;;;6248768;22;20376;-95
2023/10/13 10:19:12;;;;;;;13.48;6.28;;;18.70;90.20;;;;;;6224706;22;20012;-93
2023/10/13 10:21:38;;;;;;;18.92;5.45;;;18.80;90.10;;;;;;6249506;22;20382;-95
2023/10/13 10:24:29;;;;;;;12.55;6.00;;;18.80;90.00;;;;;;6252349;22;20094;-93
2023/10/13 10:26:56;;;;;;;11.45;5.90;;;18.90;89.60;;;;;;6251496;22;20011;-94
2023/10/13 10:29:21;;;;;;;13.80;6.25;;;19.10;89.70;;;;;;6254934;22;20012;-95
2023/10/13 10:31:48;;;;;;;12.25;5.25;;;19.00;89.10;;;;;;6252008;22;20020;-94
2023/10/13 10:34:18;;;;;;;9.10;4.97;;;19.30;89.00;;;;;;6224614;22;20052;-96
2023/10/13 10:36:47;;;;;;;12.02;5.75;;;19.10;88.60;;;;;;6225181;22;20012;-94
2023/10/13 10:39:12;;;;;;;21.15;6.70;;;19.10;88.20;;;;;;6223360;22;20020;-93
2023/10/13 10:41:54;;;;;;;17.00;6.13;;;19.20;88.00;;;;;;6222718;22;20011;-93
2023/10/13 10:44:34;;;;;;;12.68;5.45;;;19.30;87.80;;;;;;6247074;22;20022;-95
2023/10/13 10:47:11;;;;;;;16.75;6.90;;;19.30;87.60;;;;;;6246919;22;20077;-93
2023/10/13 10:49:41;;;;;;;12.88;5.65;;;19.40;87.30;;;;;;6249675;22;20105;-92
2023/10/13 10:52:14;;;;;;;13.52;5.65;;;19.40;87.10;;;;;;6254885;22;20196;-95
2023/10/13 10:54:43;;;;;;;16.42;6.30;;;19.50;86.70;;;;;;6257315;22;20011;-93
2023/10/13 10:57:13;;;;;;;13.65;5.30;;;19.50;86.50;;;;;;6244773;22;20008;-96
2023/10/13 10:59:39;;;;;;;15.27;5.97;;;19.50;86.00;;;;;;6272152;22;20042;-96
2023/10/13 11:02:07;;;;;;;16.67;5.90;;;19.70;85.40;;;;;;6271422;22;20093;-93
2023/10/13 11:04:41;;;;;;;12.50;5.40;;;19.60;85.30;;;;;;6270252;22;20038;-93
2023/10/13 11:07:08;;;;;;;16.75;6.10;;;19.80;85.00;;;;;;6229266;22;20019;-94
2023/10/13 11:12:13;;;;;;;16.65;5.53;;;19.60;84.60;;;;;;6251722;22;20571;-95
2023/10/13 11:14:39;;;;;;;14.55;6.10;;;19.70;84.00;;;;;;6230410;22;20087;-91
2023/10/13 11:17:13;;;;;;;16.55;5.97;;;19.80;84.20;;;;;;6259218;22;20016;-95
2023/10/13 11:19:42;;;;;;;14.45;6.07;;;19.80;84.00;;;;;;6255526;22;20432;-92
2023/10/13 11:22:36;;;;;;;12.60;5.25;;;19.80;83.80;;;;;;6225185;22;20008;-92
2023/10/13 11:25:09;;;;;;;11.80;5.65;;;19.80;83.40;;;;;;6250326;22;20026;-91
2023/10/13 11:31:00;;;;;;;13.98;5.93;;;19.80;83.40;;;;;;6250988;22;20019;-92
2023/10/13 11:33:05;;;;;;;14.68;6.30;;;19.80;83.30;;;;;;6234659;22;20019;-93
2023/10/13 11:38:26;;;;;;;13.30;5.82;;;19.80;83.30;;;;;;6277520;22;20023;-91
2023/10/13 11:41:14;;;;;;;13.02;5.38;;;19.80;83.00;;;;;;6249809;22;20022;-91
2023/10/13 11:49:18;;;;;;;16.05;6.43;;;19.90;82.80;;;;;;6251327;22;20074;-92
2023/10/13 11:51:50;;;;;;;14.27;6.45;;;19.80;82.70;;;;;;6250494;22;20109;-91
2023/10/13 11:54:18;;;;;;;12.07;5.68;;;19.80;82.40;;;;;;6233382;22;20015;-90
2023/10/13 11:56:44;;;;;;;16.90;6.80;;;19.80;82.50;;;;;;6253073;22;20016;-91
2023/10/13 11:59:17;;;;;;;16.33;6.25;;;19.90;82.30;;;;;;6250302;22;20467;-91
2023/10/13 12:12:20;;;;;;;11.48;6.15;;;19.90;81.20;;;;;;6249393;22;20020;-96
2023/10/13 12:14:55;;;;;;;12.20;6.38;;;19.90;80.90;;;;;;6250076;22;20040;-94
2023/10/13 12:17:31;;;;;;;13.77;6.43;;;19.90;80.80;;;;;;6224731;22;20015;-92
2023/10/13 12:19:59;;;;;;;16.70;6.28;;;19.90;81.00;;;;;;6224469;22;20008;-93
2023/10/13 12:23:15;;;;;;;17.52;6.85;;;19.90;81.00;;;;;;6247423;22;20026;-90
2023/10/13 12:25:34;;;;;;;14.57;6.70;;;19.90;81.00;;;;;;6232907;22;20026;-90
2023/10/13 12:28:51;;;;;;;10.05;5.78;;;19.90;81.00;;;;;;6250263;22;20087;-89
2023/10/13 12:30:49;;;;;;;13.98;6.45;;;19.90;81.00;;;;;;6237212;22;20015;-93
2023/10/13 12:33:24;;;;;;;16.73;7.38;;;19.90;81.10;;;;;;6223850;22;20008;-92
2023/10/13 12:36:30;;;;;;;11.10;6.03;;;19.90;80.60;;;;;;6223784;22;20015;-90
2023/10/13 12:50:07;;;;;;;12.90;7.03;;;19.90;80.00;;;;;;6249162;22;20020;-90
2023/10/13 12:52:33;;;;;;;14.90;6.28;;;19.90;80.00;;;;;;6223542;22;20012;-91
2023/10/13 12:55:01;;;;;;;16.05;6.93;;;19.90;80.00;;;;;;6249348;22;20539;-93
2023/10/13 12:57:27;;;;;;;11.88;6.10;;;19.90;79.80;;;;;;6252006;22;20405;-94
2023/10/13 12:59:53;;;;;;;17.45;7.95;;;19.90;79.70;;;;;;6224271;22;20023;-91
2023/10/13 13:02:24;;;;;;;14.13;6.82;;;20.00;80.00;;;;;;6248025;22;20313;-92
2023/10/13 13:04:54;;;;;;;16.70;6.95;;;19.90;80.00;;;;;;6248400;22;20022;-92
2023/10/13 13:07:20;;;;;;;16.75;7.85;;;19.80;80.20;;;;;;6248660;22;20426;-88
2023/10/13 13:09:46;;;;;;;16.13;7.55;;;19.80;80.10;;;;;;6247900;22;20012;-89
2023/10/13 13:12:14;;;;;;;12.05;6.35;;;19.90;80.10;;;;;;6223128;22;20094;-88
2023/10/13 13:14:46;;;;;;;17.20;7.32;;;19.80;80.20;;;;;;6248611;22;20095;-90
2023/10/13 13:17:12;;;;;;;16.45;7.13;;;19.80;80.30;;;;;;6248356;22;20008;-92
2023/10/13 13:19:40;;;;;;;17.70;7.78;;;19.80;80.30;;;;;;6248727;22;20095;-92
2023/10/13 13:22:17;;;;;;;14.30;6.68;;;19.80;80.40;;;;;;6248010;22;20023;-89
2023/10/13 13:24:44;;;;;;;14.90;6.38;;;19.70;80.20;;;;;;6222284;22;20008;-90
2023/10/13 13:27:19;;;;;;;19.70;7.80;;;19.70;80.40;;;;;;6223849;22;20038;-89
2023/10/13 13:29:45;;;;;;;20.80;7.50;;;19.70;80.50;;;;;;6252678;22;20011;-89
2023/10/13 13:32:45;;;;;;;13.15;6.88;;;19.80;80.90;;;;;;6252344;22;20467;-91
2023/10/13 13:35:14;;;;;;;15.77;7.05;;;19.70;80.80;;;;;;6247306;22;20024;-88
2023/10/13 13:37:42;;;;;;;14.73;7.05;;;19.60;81.10;;;;;;6248709;22;20245;-91
2023/10/13 13:40:21;;;;;;;16.10;7.00;;;19.60;81.10;;;;;;6223876;22;20467;-91
2023/10/13 13:42:47;;;;;;;14.52;7.72;;;19.60;81.10;;;;;;6224677;22;20026;-89
2023/10/13 13:45:27;;;;;;;23.67;7.75;;;19.50;81.20;;;;;;6256004;22;20015;-89
2023/10/13 13:47:53;;;;;;;14.93;7.25;;;19.50;81.30;;;;;;6232715;22;20078;-91
2023/10/13 13:50:28;;;;;;;14.25;7.05;;;19.50;81.40;;;;;;6254664;22;20033;-87
2023/10/13 13:52:57;;;;;;;12.57;7.10;;;19.50;81.60;;;;;;6271554;22;20003;-87
2023/10/13 13:55:23;;;;;;;19.23;7.50;;;19.50;81.80;;;;;;6273674;22;20007;-89
2023/10/13 13:57:50;;;;;;;13.00;6.85;;;19.50;81.90;;;;;;6247809;22;20022;-90
2023/10/13 14:00:38;;;;;;;18.83;7.78;;;19.50;82.00;;;;;;6239134;22;20457;-90
2023/10/13 14:03:23;;;;;;;16.67;7.03;;;19.40;82.10;;;;;;6223778;22;20027;-90
2023/10/13 14:05:50;;;;;;;12.27;7.18;;;19.40;82.30;;;;;;6223533;22;20007;-91
2023/10/13 14:08:16;;;;;;;16.15;7.10;;;19.30;82.30;;;;;;6247980;22;20090;-89
2023/10/13 14:13:48;;;;;;;17.48;6.97;;;19.30;82.50;;;;;;6247429;22;20016;-88
2023/10/13 14:16:16;;;;;;;17.70;7.40;;;19.30;82.60;;;;;;6247126;22;20318;-88
2023/10/13 14:18:51;;;;;;;16.90;7.97;;;19.40;82.80;;;;;;6221770;22;20337;-86
2023/10/13 14:21:18;;;;;;;16.48;7.93;;;19.20;82.70;;;;;;6247432;22;20524;-89
2023/10/13 14:23:48;;;;;;;19.73;8.43;;;19.60;83.10;;;;;;6246862;22;20015;-93
2023/10/13 14:26:21;;;;;;;17.35;6.75;;;19.30;83.00;;;;;;6246591;22;20016;-89
2023/10/13 14:29:08;;;;;;;18.52;8.30;;;19.30;83.00;;;;;;6222504;22;20011;-95
2023/10/13 14:31:37;;;;;;;13.60;7.20;;;19.30;83.10;;;;;;6248554;22;20022;-89
2023/10/13 14:34:03;;;;;;;16.65;7.40;;;19.30;83.20;;;;;;6222568;22;20015;-89
2023/10/13 14:36:29;;;;;;;13.65;7.18;;;19.20;83.20;;;;;;6246388;22;20053;-92
2023/10/13 14:38:56;;;;;;;17.52;6.97;;;19.20;83.20;;;;;;6221595;22;20008;-91
2023/10/13 14:41:22;;;;;;;17.90;8.25;;;19.20;83.30;;;;;;6247102;22;20321;-90
2023/10/13 14:43:47;;;;;;;13.93;7.07;;;19.20;83.30;;;;;;6221397;22;20022;-88
2023/10/13 14:46:23;;;;;;;15.27;7.10;;;19.20;83.20;;;;;;6222808;22;20019;-91
2023/10/13 14:48:52;;;;;;;19.13;7.72;;;19.20;83.20;;;;;;6247506;22;20015;-90
2023/10/13 14:51:18;;;;;;;18.67;8.25;;;19.20;83.40;;;;;;6226319;22;20020;-95
2023/10/13 14:53:45;;;;;;;22.33;8.45;;;19.20;83.70;;;;;;6250498;22;20016;-95
2023/10/13 14:56:16;;;;;;;21.52;9.27;;;19.20;84.00;;;;;;6249683;22;20064;-95
2023/10/13 14:58:42;;;;;;;16.83;8.70;;;19.20;84.40;;;;;;6223088;22;20138;-95
2023/10/13 15:01:16;;;;;;;16.75;8.98;;;19.10;84.50;;;;;;6249985;22;20008;-94
2023/10/13 15:03:50;;;;;;;16.90;8.75;;;19.10;84.80;;;;;;6223317;22;20019;-94
2023/10/13 15:06:18;;;;;;;14.35;9.40;;;19.10;84.90;;;;;;6225901;22;20033;-95
2023/10/13 15:08:46;;;;;;;16.83;8.77;;;19.30;85.30;;;;;;6225726;22;20018;-96
2023/10/13 15:11:18;;;;;;;20.75;9.55;;;19.00;85.30;;;;;;6253052;22;20007;-94
2023/10/13 15:13:43;;;;;;;17.90;9.60;;;18.90;85.50;;;;;;6226294;22;20039;-94
2023/10/13 15:16:21;;;;;;;17.20;9.63;;;18.90;85.60;;;;;;6225087;22;20118;-94
2023/10/13 15:18:51;;;;;;;17.40;9.40;;;18.90;85.80;;;;;;6223865;22;20007;-95
2023/10/13 15:21:28;;;;;;;14.23;8.60;;;18.90;86.00;;;;;;6225454;22;20368;-93
2023/10/13 15:23:59;;;;;;;18.95;9.38;;;18.90;86.20;;;;;;6225589;22;20050;-94
2023/10/13 15:26:25;;;;;;;18.00;9.93;;;18.80;86.30;;;;;;6224274;22;20022;-94
2023/10/13 15:28:55;;;;;;;14.45;8.75;;;18.80;86.50;;;;;;6225338;22;20016;-93
2023/10/13 15:31:26;;;;;;;17.92;8.98;;;18.80;86.50;;;;;;6224938;22;20008;-93
2023/10/13 15:33:54;;;;;;;15.52;9.13;;;18.70;86.60;;;;;;6250150;22;20020;-93
2023/10/13 15:36:24;;;;;;;19.33;9.75;;;18.70;86.70;;;;;;6249884;22;20004;-92
2023/10/13 15:38:51;;;;;;;14.88;8.30;;;18.70;86.90;;;;;;6227879;22;20016;-96
2023/10/13 15:41:25;;;;;;;18.50;8.40;;;18.70;87.00;;;;;;6253693;22;20012;-93
2023/10/13 15:43:51;;;;;;;18.50;9.20;;;18.70;87.20;;;;;;6241004;22;20055;-94
2023/10/13 15:46:20;;;;;;;19.58;9.55;;;18.60;87.20;;;;;;6239211;22;20039;-95
2023/10/13 15:48:46;;;;;;;13.85;8.68;;;18.60;87.40;;;;;;6259065;22;20008;-92
2023/10/13 15:51:12;;;;;;;15.55;8.40;;;18.60;87.60;;;;;;6235643;22;20023;-92
2023/10/13 15:53:38;;;;;;;17.92;8.65;;;18.50;87.60;;;;;;6255542;22;20016;-96
2023/10/13 15:56:11;;;;;;;19.88;8.82;;;18.60;87.80;;;;;;6226271;22;20011;-95
2023/10/13 15:58:43;;;;;;;15.93;7.93;;;18.60;87.90;;;;;;6229053;22;20008;-96
2023/10/13 16:01:12;;;;;;;15.95;7.30;;;18.60;88.10;;;;;;6253669;22;20007;-95
2023/10/13 16:03:51;;;;;;;14.82;7.60;;;18.50;88.10;;;;;;6227760;22;20037;-95
2023/10/13 16:06:16;;;;;;;14.32;7.10;;;18.50;88.30;;;;;;6227702;22;20122;-95
2023/10/13 16:08:43;;;;;;;10.27;5.72;;;18.50;88.30;;;;;;6226770;22;20115;-95
2023/10/13 16:11:13;;;;;;;13.02;6.70;;;18.50;88.30;;;;;;6227296;22;20026;-93
2023/10/13 16:13:42;;;;;;;13.60;6.00;;;18.50;88.30;;;;;;6227216;22;20003;-96
2023/10/13 16:16:15;;;;;;;12.02;5.85;;;18.40;88.30;;;;;;6226985;22;20020;-96
2023/10/13 16:18:45;;;;;;;9.20;4.35;;;18.40;88.30;;;;;;6226664;22;20008;-95
2023/10/13 16:21:14;;;;;;;8.50;4.65;;;18.40;88.20;;;;;;6226827;22;20014;-94
2023/10/13 16:23:49;;;;;;;8.18;4.20;;;18.40;88.30;;;;;;6252267;22;20437;-94